Saratoga, Texas
Current Conditions -  °F | °C
As of 3:35 AM on Saturday 29 Nov 2014 (Local Time) from KBMT Reporting Station
Clear Clear  
Wind Chill: 58°   Ceiling: Unl
Heat Index: 58°   Visibility: 10mi
Dew Point: 57°   Wind: 6mph
Humidity: 97%   Direction: 160°SSE
Pressure: 30.11"   Gusts: NA
Location:  30.28°N, 94.53°W
Report Text: KBMT 290935Z AUTO 16005KT 10SM CLR 14/14 A3011 RMK AO2 T01440140
Loading
Personal Weather Stations






























Interactive Weather Map New forecast layout! Learn more

10-Day Weather Forecast

Advertisements
Track Severe Weather on mobile